Terminal Aerodrome Forecast
Issued by NWS

Home | Current Version | Previous Version | Text Only | Print | Product List | Glossary On
Versions: 1 2 3 4 5 6 7 8 9 10 11 12 13 14 15 16 17
000
FTUS45 KABQ 072346
TAFLVS
TAF
KLVS 072346Z 0800/0824 15010KT 5SM HZ SCT025 BKN050
      TEMPO 0800/0802 3SM -SHRA BR BKN025
     FM080600 19008KT P6SM VCSH SCT025 BKN040
     FM080800 19010KT 3SM BR OVC012
     FM081400 22015KT P6SM SCT025 BKN040
     FM081930 24020G30KT P6SM VCTS SCT060CB BKN110
     FM082200 25015G25KT P6SM VCSH SCT080 BKN120=

USA.gov is the U.S. government's official web portal to all federal, state and local government web resources and services.